createdAt,value
2023-02-04T00:00:43.261Z,101265.72
2023-02-04T00:05:44.926Z,101270.69
2023-02-04T00:10:47.556Z,101282.97
2023-02-04T00:15:49.261Z,101276.94
2023-02-04T00:20:50.927Z,101277.75
2023-02-04T00:25:52.518Z,101282.91
2023-02-04T00:30:54.156Z,101281.50
2023-02-04T00:35:56.321Z,101280.91
2023-02-04T00:40:57.964Z,101290.84
2023-02-04T00:45:59.663Z,101298.81
2023-02-04T00:51:01.745Z,101306.63
2023-02-04T00:56:03.347Z,101303.50
2023-02-04T01:01:05.252Z,101309.56
2023-02-04T01:06:06.944Z,101307.78
2023-02-04T01:11:08.555Z,101329.50
2023-02-04T01:16:10.732Z,101325.41
2023-02-04T01:21:12.447Z,101337.00
2023-02-04T01:26:14.010Z,101337.88
2023-02-04T01:31:15.741Z,101336.81
2023-02-04T01:36:21.728Z,101355.94
2023-02-04T01:41:23.456Z,101351.59
2023-02-04T01:46:25.149Z,101366.25
2023-02-04T01:51:29.794Z,101351.41
2023-02-04T01:56:31.437Z,101345.25
2023-02-04T02:01:49.814Z,101357.44
2023-02-04T02:06:58.778Z,101366.75
2023-02-04T02:12:03.074Z,101389.47
2023-02-04T02:17:04.774Z,101373.00
2023-02-04T02:22:13.248Z,101367.63
2023-02-04T02:27:14.975Z,101382.34
2023-02-04T02:32:17.213Z,101389.47
2023-02-04T02:37:19.077Z,101403.31
2023-02-04T02:42:21.106Z,101392.97
2023-02-04T02:47:23.681Z,101391.38
2023-02-04T02:52:25.327Z,101392.16
2023-02-04T02:57:27.018Z,101400.84
2023-02-04T03:02:28.664Z,101416.41
2023-02-04T03:07:30.327Z,101406.81
2023-02-04T03:12:32.006Z,101416.34
2023-02-04T03:17:34.339Z,101407.78
2023-02-04T03:22:37.820Z,101409.69
2023-02-04T03:27:39.476Z,101424.59
2023-02-04T03:32:41.846Z,101435.00
2023-02-04T03:37:44.087Z,101433.75
2023-02-04T03:42:45.672Z,101439.13
2023-02-04T03:47:47.461Z,101452.97
2023-02-04T03:52:50.208Z,101463.25
2023-02-04T03:57:52.635Z,101468.50
2023-02-04T04:02:54.294Z,101473.69
2023-02-04T04:07:56.158Z,101480.66
2023-02-04T04:12:57.826Z,101487.75
2023-02-04T04:17:59.433Z,101482.47
2023-02-04T04:23:01.064Z,101490.41
2023-02-04T04:28:02.740Z,101480.34
2023-02-04T04:33:04.375Z,101487.13
2023-02-04T04:38:05.958Z,101487.03
2023-02-04T04:43:07.633Z,101487.94
2023-02-04T04:48:09.233Z,101497.75
2023-02-04T04:53:11.456Z,101506.38
2023-02-04T04:58:13.076Z,101505.56
2023-02-04T05:03:14.731Z,101502.94
2023-02-04T05:08:17.096Z,101506.41
2023-02-04T05:13:18.735Z,101502.84
2023-02-04T05:18:20.325Z,101506.25
2023-02-04T05:23:21.924Z,101510.41
2023-02-04T05:28:23.581Z,101533.88
2023-02-04T05:33:25.184Z,101535.53
2023-02-04T05:38:26.760Z,101541.72
2023-02-04T05:43:28.361Z,101552.09
2023-02-04T05:48:30.099Z,101551.09
2023-02-04T05:53:31.968Z,101560.59
2023-02-04T05:58:33.736Z,101563.16
2023-02-04T06:03:35.397Z,101560.56
2023-02-04T06:08:37.076Z,101563.06
2023-02-04T06:13:38.671Z,101572.91
2023-02-04T06:18:40.280Z,101578.34
2023-02-04T06:23:41.859Z,101592.13
2023-02-04T06:28:43.429Z,101591.13
2023-02-04T06:33:45.079Z,101600.53
2023-02-04T06:38:46.709Z,101598.91
2023-02-04T06:43:48.277Z,101604.00
2023-02-04T06:48:49.857Z,101609.94
2023-02-04T06:53:52.569Z,101620.22
2023-02-04T06:58:54.183Z,101628.97
2023-02-04T07:03:55.787Z,101629.78
2023-02-04T07:08:57.406Z,101636.66
2023-02-04T07:13:59.043Z,101651.34
2023-02-04T07:19:00.656Z,101647.97
2023-02-04T07:24:02.360Z,101647.06
2023-02-04T07:29:03.975Z,101660.91
2023-02-04T07:34:05.659Z,101659.25
2023-02-04T07:39:07.849Z,101676.56
2023-02-04T07:44:09.504Z,101679.03
2023-02-04T07:49:11.353Z,101678.81
2023-02-04T07:54:12.948Z,101686.44
2023-02-04T07:59:14.528Z,101693.28
2023-02-04T08:04:16.161Z,101693.16
2023-02-04T08:09:17.775Z,101702.41
2023-02-04T08:14:19.420Z,101693.50
2023-02-04T08:19:21.603Z,101700.22
2023-02-04T08:24:23.231Z,101702.63
2023-02-04T08:29:25.838Z,101699.88
2023-02-04T08:34:27.644Z,101694.59
2023-02-04T08:39:29.674Z,101692.81
2023-02-04T08:44:31.288Z,101713.78
2023-02-04T08:49:32.889Z,101715.28
2023-02-04T08:54:35.606Z,101718.06
2023-02-04T08:59:37.183Z,101725.69
2023-02-04T09:04:38.973Z,101722.38
2023-02-04T09:09:40.568Z,101728.09
2023-02-04T09:14:42.134Z,101732.34
2023-02-04T09:19:43.796Z,101744.19
2023-02-04T09:24:45.402Z,101738.66
2023-02-04T09:29:46.988Z,101745.75
2023-02-04T09:34:48.612Z,101755.41
2023-02-04T09:39:50.212Z,101762.75
2023-02-04T09:44:52.065Z,101766.13
2023-02-04T09:49:53.698Z,101768.53
2023-02-04T09:54:56.861Z,101772.69
2023-02-04T09:59:58.828Z,101785.81
2023-02-04T10:05:00.572Z,101787.94
2023-02-04T10:10:03.428Z,101782.75
2023-02-04T10:15:08.356Z,101788.19
2023-02-04T10:20:17.606Z,101787.31
2023-02-04T10:25:21.832Z,101792.59
2023-02-04T10:30:27.687Z,101797.13
2023-02-04T10:35:29.274Z,101794.78
2023-02-04T10:40:34.263Z,101791.59
2023-02-04T10:45:36.324Z,101791.72
2023-02-04T10:50:39.040Z,101794.28
2023-02-04T10:55:40.695Z,101783.09
2023-02-04T11:00:42.513Z,101787.84
2023-02-04T11:05:44.143Z,101785.03
2023-02-04T11:10:45.759Z,101781.44
2023-02-04T11:15:50.928Z,101790.00
2023-02-04T11:20:56.332Z,101792.69
2023-02-04T11:26:20.327Z,101794.00
2023-02-04T11:31:21.990Z,101791.75
2023-02-04T11:36:23.758Z,101801.56
2023-02-04T11:41:29.960Z,101812.91
2023-02-04T11:46:32.184Z,101794.22
2023-02-04T11:51:34.740Z,101789.41
2023-02-04T11:56:36.371Z,101786.59
2023-02-04T12:01:38.328Z,101785.81
2023-02-04T12:06:39.929Z,101790.88
2023-02-04T12:11:56.041Z,101791.09
2023-02-04T12:16:57.865Z,101788.50
2023-02-04T12:21:59.476Z,101800.03
2023-02-04T12:27:01.088Z,101796.56
2023-02-04T12:32:02.752Z,101798.09
2023-02-04T12:37:04.420Z,101801.72
2023-02-04T12:42:06.065Z,101799.44
2023-02-04T12:47:07.667Z,101799.63
2023-02-04T12:52:09.637Z,101792.91
2023-02-04T12:57:11.768Z,101791.91
2023-02-04T13:02:13.547Z,101789.53
2023-02-04T13:07:15.169Z,101789.09
2023-02-04T13:12:16.824Z,101779.53
2023-02-04T13:17:18.500Z,101780.88
2023-02-04T13:22:20.143Z,101773.03
2023-02-04T13:27:22.029Z,101781.44
2023-02-04T13:32:23.641Z,101776.63
2023-02-04T13:37:25.291Z,101778.03
2023-02-04T13:42:27.249Z,101774.19
2023-02-04T13:47:28.868Z,101785.69
2023-02-04T13:52:30.532Z,101784.06
2023-02-04T13:57:32.954Z,101790.75
2023-02-04T14:02:34.631Z,101782.78
2023-02-04T14:07:36.321Z,101791.16
2023-02-04T14:12:37.910Z,101787.78
2023-02-04T14:17:39.511Z,101782.81
2023-02-04T14:22:41.184Z,101786.56
2023-02-04T14:27:42.936Z,101791.97
2023-02-04T14:32:44.643Z,101786.91
2023-02-04T14:37:46.354Z,101777.63
2023-02-04T14:42:48.091Z,101776.91
2023-02-04T14:47:51.857Z,101782.03
2023-02-04T14:52:54.168Z,101797.47
2023-02-04T14:57:55.785Z,101787.84
2023-02-04T15:02:57.382Z,101784.16
2023-02-04T15:07:58.997Z,101786.03
2023-02-04T15:13:00.611Z,101785.59
2023-02-04T15:18:02.210Z,101795.06
2023-02-04T15:23:03.866Z,101799.63
2023-02-04T15:28:06.238Z,101801.94
2023-02-04T15:33:07.907Z,101806.50
2023-02-04T15:38:10.646Z,101814.22
2023-02-04T15:43:12.248Z,101812.91
2023-02-04T15:48:13.922Z,101821.91
2023-02-04T15:53:15.567Z,101825.22
2023-02-04T15:58:17.176Z,101827.66
2023-02-04T16:03:18.884Z,101834.00
2023-02-04T16:08:20.460Z,101826.69
2023-02-04T16:13:22.098Z,101830.84
2023-02-04T16:18:25.715Z,101838.47
2023-02-04T16:23:27.332Z,101853.66
2023-02-04T16:28:29.080Z,101864.41
2023-02-04T16:33:30.788Z,101862.88
2023-02-04T16:38:32.646Z,101864.78
2023-02-04T16:43:34.339Z,101855.44
2023-02-04T16:48:36.497Z,101860.91
2023-02-04T16:53:38.154Z,101873.31
2023-02-04T16:58:40.088Z,101877.84
2023-02-04T17:03:42.376Z,101880.56
2023-02-04T17:08:43.946Z,101882.50
2023-02-04T17:13:45.595Z,101887.97
2023-02-04T17:18:48.094Z,101890.69
2023-02-04T17:23:50.565Z,101899.41
2023-02-04T17:28:52.486Z,101896.91
2023-02-04T17:33:54.111Z,101910.56
2023-02-04T17:38:56.544Z,101921.19
2023-02-04T17:43:59.119Z,101922.88
2023-02-04T17:49:00.772Z,101926.66
2023-02-04T17:54:02.385Z,101929.28
2023-02-04T17:59:09.743Z,101930.16
2023-02-04T18:04:14.256Z,101939.78
2023-02-04T18:09:18.038Z,101938.97
2023-02-04T18:14:27.791Z,101939.03
2023-02-04T18:19:31.148Z,101940.88
2023-02-04T18:24:40.040Z,101944.34
2023-02-04T18:29:43.866Z,101950.44
2023-02-04T18:34:48.102Z,101947.91
2023-02-04T18:39:49.770Z,101948.75
2023-02-04T18:44:52.599Z,101955.72
2023-02-04T18:49:54.211Z,101954.88
2023-02-04T18:54:58.979Z,101945.41
2023-02-04T19:00:27.560Z,101955.13
2023-02-04T19:05:33.274Z,101949.97
2023-02-04T19:10:42.968Z,101940.56
2023-02-04T19:15:49.958Z,101937.31
2023-02-04T19:20:52.341Z,101938.31
2023-02-04T19:25:54.205Z,101947.03
2023-02-04T19:31:05.773Z,101944.47
2023-02-04T19:36:33.849Z,101949.75
2023-02-04T19:41:48.049Z,101953.25
2023-02-04T19:46:49.648Z,101971.38
2023-02-04T19:51:56.965Z,101974.78
2023-02-04T19:56:58.560Z,101978.31
2023-02-04T20:02:35.752Z,101976.59
2023-02-04T20:07:38.102Z,101986.13
2023-02-04T20:12:41.298Z,101980.13
2023-02-04T20:17:49.938Z,102002.59
2023-02-04T20:22:56.883Z,102000.88
2023-02-04T20:28:03.215Z,102001.75
2023-02-04T20:33:26.541Z,101994.84
2023-02-04T20:38:30.140Z,102005.19
2023-02-04T20:43:34.849Z,102006.06
2023-02-04T20:48:40.969Z,102003.47
2023-02-04T20:53:53.163Z,102013.81
2023-02-04T20:59:16.500Z,102006.00
2023-02-04T21:04:42.487Z,102012.00
2023-02-04T21:09:45.493Z,102001.66
2023-02-04T21:14:47.585Z,102004.22
2023-02-04T21:19:49.243Z,102002.44
2023-02-04T21:24:51.121Z,102002.47
2023-02-04T21:29:53.195Z,102009.25
2023-02-04T21:34:57.422Z,102009.25
2023-02-04T21:39:59.554Z,102009.22
2023-02-04T21:45:01.430Z,102010.91
2023-02-04T21:50:03.610Z,102008.28
2023-02-04T21:55:07.146Z,102018.63
2023-02-04T22:00:09.763Z,102022.00
2023-02-04T22:05:12.292Z,102021.16
2023-02-04T22:10:17.518Z,102019.41
2023-02-04T22:15:24.323Z,102005.63
2023-02-04T22:20:26.068Z,102009.00
2023-02-04T22:25:27.741Z,102024.44
2023-02-04T22:30:29.463Z,102011.53
2023-02-04T22:35:35.104Z,102014.94
2023-02-04T22:40:37.111Z,102020.91
2023-02-04T22:45:38.690Z,102010.56
2023-02-04T22:50:40.275Z,102013.00
2023-02-04T22:55:41.891Z,102018.94
2023-02-04T23:00:44.522Z,102015.63
2023-02-04T23:05:48.024Z,102024.38
2023-02-04T23:10:49.716Z,102021.94
2023-02-04T23:15:51.330Z,102020.97
2023-02-04T23:20:52.938Z,102016.59
2023-02-04T23:25:54.548Z,102016.56
2023-02-04T23:30:56.537Z,102018.31
2023-02-04T23:35:58.347Z,102008.84
2023-02-04T23:41:00.279Z,102007.06
2023-02-04T23:46:01.898Z,102010.44
2023-02-04T23:51:03.833Z,102011.31
2023-02-04T23:56:05.545Z,102013.00
